Time,TemperatureF,DewpointF,PressureIn,WindDirection,WindDirectionDegrees,WindSpeedMPH,WindSpeedGustMPH,Humidity,HourlyPrecipIn,Conditions,Clouds,dailyrainin,SoftwareType,DateUTC
2013-01-30 00:04:00,31.9,30.9,30.20,WNW,283,7.0,7.0,96,0.00,-RA,,0.00,WeatherDisplay:10.37,2013-01-30 08:04:00,
2013-01-30 00:09:00,31.9,30.9,30.20,WNW,288,4.6,4.6,96,0.00,-RA,,0.00,WeatherDisplay:10.37,2013-01-30 08:09:00,
2013-01-30 00:14:00,31.9,30.9,30.20,West,281,3.5,3.5,96,0.00,-RA,,0.00,WeatherDisplay:10.37,2013-01-30 08:14:00,
2013-01-30 00:19:00,31.9,30.9,30.20,WNW,286,5.8,5.8,96,0.00,-RA,,0.00,WeatherDisplay:10.37,2013-01-30 08:19:00,
2013-01-30 00:24:00,31.9,30.9,30.20,WNW,283,4.6,4.6,96,0.00,-RA,,0.00,WeatherDisplay:10.37,2013-01-30 08:24:00,
2013-01-30 00:29:00,31.9,30.9,30.20,WNW,284,3.5,3.5,96,0.00,-RA,,0.00,WeatherDisplay:10.37,2013-01-30 08:29:00,
2013-01-30 00:34:00,32.0,31.0,30.19,WNW,286,5.8,5.8,96,0.00,-RA,,0.00,WeatherDisplay:10.37,2013-01-30 08:34:00,
2013-01-30 00:39:00,31.9,30.9,30.19,West,280,5.8,5.8,96,0.00,-RA,,0.00,WeatherDisplay:10.37,2013-01-30 08:39:00,
2013-01-30 00:44:00,32.0,31.0,30.19,WNW,283,12.7,12.7,96,0.00,-RA,,0.00,WeatherDisplay:10.37,2013-01-30 08:44:00,
2013-01-30 00:49:00,32.1,31.1,30.19,WNW,288,10.4,10.4,96,0.00,-RA,,0.00,WeatherDisplay:10.37,2013-01-30 08:49:00,
2013-01-30 00:54:00,32.1,31.1,30.19,WNW,285,13.0,13.0,96,0.00,-RA,,0.00,WeatherDisplay:10.37,2013-01-30 08:54:00,
2013-01-30 00:59:00,32.2,31.2,30.19,WNW,286,11.5,11.5,96,0.00,-RA,,0.00,WeatherDisplay:10.37,2013-01-30 08:59:00,
2013-01-30 01:04:00,32.2,31.2,30.20,WNW,299,15.0,15.0,96,0.00,-RA,,0.00,WeatherDisplay:10.37,2013-01-30 09:04:00,
2013-01-30 01:09:00,32.2,31.2,30.19,WNW,296,11.5,11.5,96,0.00,-RA,,0.00,WeatherDisplay:10.37,2013-01-30 09:09:00,
2013-01-30 01:14:00,32.2,31.2,30.20,WNW,290,11.5,11.5,96,0.00,-RA,,0.00,WeatherDisplay:10.37,2013-01-30 09:14:00,
2013-01-30 01:19:00,32.3,31.3,30.20,West,267,9.0,9.0,96,0.00,-RA,,0.00,WeatherDisplay:10.37,2013-01-30 09:19:00,
2013-01-30 01:24:00,32.3,31.3,30.21,WNW,298,12.7,12.7,96,0.00,-RA,,0.00,WeatherDisplay:10.37,2013-01-30 09:24:00,
2013-01-30 01:29:00,32.3,31.3,30.21,West,277,5.8,5.8,96,0.00,-RA,,0.00,WeatherDisplay:10.37,2013-01-30 09:29:00,
2013-01-30 01:34:00,32.3,31.3,30.21,WNW,293,10.4,10.4,96,0.00,-RA,,0.00,WeatherDisplay:10.37,2013-01-30 09:34:00,
2013-01-30 01:39:00,32.3,31.3,30.21,WNW,292,6.0,6.0,96,0.00,-RA,,0.00,WeatherDisplay:10.37,2013-01-30 09:39:00,
2013-01-30 01:44:00,32.2,31.2,30.21,WNW,289,10.4,10.4,96,0.00,-RA,,0.00,WeatherDisplay:10.37,2013-01-30 09:44:00,
2013-01-30 01:49:00,32.3,31.3,30.21,WNW,302,6.9,6.9,96,0.00,-RA,,0.00,WeatherDisplay:10.37,2013-01-30 09:49:00,
2013-01-30 01:54:00,32.3,31.3,30.21,West,279,16.0,16.0,96,0.00,-RA,,0.00,WeatherDisplay:10.37,2013-01-30 09:54:00,
2013-01-30 01:59:00,32.3,31.3,30.22,WNW,283,15.0,15.0,96,0.00,-RA,,0.00,WeatherDisplay:10.37,2013-01-30 09:59:00,
2013-01-30 02:04:00,32.3,31.3,30.22,WNW,296,6.9,6.9,96,0.00,-RA,,0.00,WeatherDisplay:10.37,2013-01-30 10:04:00,
2013-01-30 02:09:00,32.2,31.2,30.22,NW,310,10.4,10.4,96,0.00,-RA,,0.00,WeatherDisplay:10.37,2013-01-30 10:09:00,
2013-01-30 02:14:00,32.3,31.3,30.22,West,272,8.1,8.1,96,0.00,-RA,,0.00,WeatherDisplay:10.37,2013-01-30 10:14:00,
2013-01-30 02:19:00,32.4,31.6,30.22,WNW,290,11.5,11.5,97,0.00,-RA,,0.00,WeatherDisplay:10.37,2013-01-30 10:19:00,
2013-01-30 02:24:00,32.4,31.6,30.21,WNW,300,12.7,12.7,97,0.00,-RA,,0.00,WeatherDisplay:10.37,2013-01-30 10:24:00,
2013-01-30 02:29:00,32.3,31.5,30.22,West,281,10.4,10.4,97,0.00,-RA,,0.00,WeatherDisplay:10.37,2013-01-30 10:29:00,
2013-01-30 02:34:00,32.4,31.6,30.21,WNW,290,12.7,12.7,97,0.00,-RA,,0.00,WeatherDisplay:10.37,2013-01-30 10:34:00,
2013-01-30 02:39:00,32.4,31.6,30.21,WNW,295,6.9,6.9,97,0.00,-RA,,0.00,WeatherDisplay:10.37,2013-01-30 10:39:00,
2013-01-30 02:44:00,32.4,31.6,30.21,WNW,300,8.1,8.1,97,0.00,-RA,,0.00,WeatherDisplay:10.37,2013-01-30 10:44:00,
2013-01-30 02:49:00,32.5,31.7,30.21,WNW,285,16.1,16.1,97,0.00,-RA,,0.00,WeatherDisplay:10.37,2013-01-30 10:49:00,
2013-01-30 02:54:00,32.7,31.7,30.21,WNW,291,18.4,18.4,96,0.00,-RA,,0.00,WeatherDisplay:10.37,2013-01-30 10:54:00,
2013-01-30 02:59:00,32.8,31.8,30.21,WNW,296,11.5,11.5,96,0.00,-RA,,0.00,WeatherDisplay:10.37,2013-01-30 10:59:00,
2013-01-30 03:04:00,32.8,31.8,30.21,WNW,284,10.0,10.0,96,0.00,OVC,,0.00,WeatherDisplay:10.37,2013-01-30 11:04:00,
2013-01-30 03:09:00,32.8,31.8,30.21,WNW,286,12.7,12.7,96,0.00,OVC,,0.00,WeatherDisplay:10.37,2013-01-30 11:09:00,
2013-01-30 03:14:00,32.8,32.0,30.21,WNW,287,15.0,15.0,97,0.00,OVC,,0.00,WeatherDisplay:10.37,2013-01-30 11:14:00,
2013-01-30 03:19:00,32.9,31.9,30.21,WNW,291,6.9,6.9,96,0.00,OVC,,0.00,WeatherDisplay:10.37,2013-01-30 11:19:00,
2013-01-30 03:24:00,32.9,31.9,30.21,WNW,299,10.4,10.4,96,0.00,OVC,,0.00,WeatherDisplay:10.37,2013-01-30 11:24:00,
2013-01-30 03:29:00,32.9,31.9,30.21,WNW,290,10.4,10.4,96,0.00,OVC,,0.01,WeatherDisplay:10.37,2013-01-30 11:29:00,
2013-01-30 03:34:00,33.0,32.0,30.21,WNW,287,11.5,11.5,96,0.01,RA,,0.01,WeatherDisplay:10.37,2013-01-30 11:34:00,
2013-01-30 03:39:00,33.0,32.0,30.21,WNW,284,11.5,11.5,96,0.01,RA,,0.01,WeatherDisplay:10.37,2013-01-30 11:39:00,
2013-01-30 03:44:00,33.0,32.0,30.20,WNW,300,13.8,13.8,96,0.01,OVC,,0.01,WeatherDisplay:10.37,2013-01-30 11:44:00,
2013-01-30 03:49:00,33.2,32.4,30.20,WNW,290,15.0,15.0,97,0.01,OVC,,0.01,WeatherDisplay:10.37,2013-01-30 11:49:00,
2013-01-30 03:54:00,33.2,32.4,30.20,WNW,298,8.1,8.1,97,0.01,OVC,,0.01,WeatherDisplay:10.37,2013-01-30 11:54:00,
2013-01-30 03:59:00,33.2,32.4,30.20,WNW,294,9.2,9.2,97,0.01,OVC,,0.01,WeatherDisplay:10.37,2013-01-30 11:59:00,
2013-01-30 04:04:00,33.2,32.4,30.20,WNW,300,9.2,9.2,97,0.01,OVC,,0.01,WeatherDisplay:10.37,2013-01-30 12:04:00,
2013-01-30 04:09:00,33.2,32.4,30.20,WNW,284,19.6,19.6,97,0.01,OVC,,0.01,WeatherDisplay:10.37,2013-01-30 12:09:00,
2013-01-30 04:14:00,33.4,32.6,30.20,WNW,290,11.0,11.0,97,0.01,OVC,,0.01,WeatherDisplay:10.37,2013-01-30 12:14:00,
2013-01-30 04:19:00,33.4,32.6,30.20,WNW,285,13.8,13.8,97,0.01,OVC,,0.01,WeatherDisplay:10.37,2013-01-30 12:19:00,
2013-01-30 04:24:00,33.4,32.6,30.19,WNW,284,9.2,9.2,97,0.01,OVC,,0.01,WeatherDisplay:10.37,2013-01-30 12:24:00,
2013-01-30 04:29:00,33.5,32.7,30.19,West,279,11.5,11.5,97,0.01,OVC,,0.01,WeatherDisplay:10.37,2013-01-30 12:29:00,
2013-01-30 04:34:00,33.8,33.0,30.19,West,277,17.3,17.3,97,0.00,OVC,,0.01,WeatherDisplay:10.37,2013-01-30 12:34:00,
2013-01-30 04:39:00,33.9,33.1,30.19,WNW,284,12.7,12.7,97,0.00,OVC,,0.01,WeatherDisplay:10.37,2013-01-30 12:39:00,
2013-01-30 04:44:00,33.9,33.1,30.19,WNW,284,12.7,12.7,97,0.00,OVC,,0.01,WeatherDisplay:10.37,2013-01-30 12:44:00,
2013-01-30 04:49:00,33.9,33.1,30.19,WNW,292,11.5,11.5,97,0.00,OVC,,0.01,WeatherDisplay:10.37,2013-01-30 12:49:00,
2013-01-30 04:54:00,33.9,33.1,30.19,West,271,15.0,15.0,97,0.00,OVC,,0.01,WeatherDisplay:10.37,2013-01-30 12:54:00,
2013-01-30 04:59:00,34.0,33.2,30.19,WNW,296,13.8,13.8,97,0.00,OVC,,0.01,WeatherDisplay:10.37,2013-01-30 12:59:00,
2013-01-30 05:04:00,34.1,33.3,30.19,WNW,291,11.5,11.5,97,0.00,OVC,,0.01,WeatherDisplay:10.37,2013-01-30 13:04:00,
2013-01-30 05:09:00,34.0,33.2,30.19,WNW,285,12.7,12.7,97,0.00,OVC,,0.01,WeatherDisplay:10.37,2013-01-30 13:09:00,
2013-01-30 05:14:00,34.1,33.3,30.19,NW,305,11.5,11.5,97,0.00,OVC,,0.01,WeatherDisplay:10.37,2013-01-30 13:14:00,
2013-01-30 05:19:00,34.0,33.2,30.18,WNW,297,10.4,10.4,97,0.00,OVC,,0.01,WeatherDisplay:10.37,2013-01-30 13:19:00,
2013-01-30 05:24:00,33.9,33.1,30.19,WNW,300,6.0,7.6,97,0.00,OVC,,0.01,WeatherDisplay:10.37,2013-01-30 13:24:00,
2013-01-30 05:29:00,33.9,33.1,30.19,WNW,301,4.6,4.6,97,0.00,OVC,,0.01,WeatherDisplay:10.37,2013-01-30 13:29:00,
2013-01-30 05:34:00,33.8,33.0,30.19,NW,311,3.5,3.5,97,0.00,OVC,,0.01,WeatherDisplay:10.37,2013-01-30 13:34:00,
2013-01-30 05:39:00,33.7,32.9,30.19,NW,311,3.5,3.5,97,0.00,OVC,,0.01,WeatherDisplay:10.37,2013-01-30 13:39:00,
2013-01-30 05:44:00,33.6,32.8,30.20,NW,323,3.5,3.5,97,0.00,OVC,,0.01,WeatherDisplay:10.37,2013-01-30 13:44:00,
2013-01-30 05:49:00,33.5,32.5,30.20,NW,323,3.5,3.5,96,0.00,OVC,,0.01,WeatherDisplay:10.37,2013-01-30 13:49:00,
2013-01-30 05:54:00,33.5,32.5,30.20,NW,306,3.5,3.5,96,0.00,OVC,,0.01,WeatherDisplay:10.37,2013-01-30 13:54:00,
2013-01-30 05:59:00,33.5,32.5,30.21,WNW,286,3.5,3.5,96,0.00,OVC,,0.01,WeatherDisplay:10.37,2013-01-30 13:59:00,
2013-01-30 06:04:00,33.4,32.4,30.22,NNW,329,3.5,3.5,96,0.00,BKN,,0.01,WeatherDisplay:10.37,2013-01-30 14:04:00,
2013-01-30 06:09:00,33.3,32.3,30.22,NNW,329,3.5,3.5,96,0.00,BKN,,0.01,WeatherDisplay:10.37,2013-01-30 14:09:00,
2013-01-30 06:15:00,33.2,32.4,30.22,NW,325,2.3,2.3,97,0.00,BKN,,0.01,WeatherDisplay:10.37,2013-01-30 14:15:00,
2013-01-30 06:20:00,33.0,32.2,30.23,NW,325,2.3,2.3,97,0.00,BKN,,0.01,WeatherDisplay:10.37,2013-01-30 14:20:00,
2013-01-30 06:25:00,32.9,32.1,30.22,NW,325,3.5,3.5,97,0.00,BKN,,0.01,WeatherDisplay:10.37,2013-01-30 14:25:00,
2013-01-30 06:30:00,32.9,31.9,30.23,NW,325,3.5,3.5,96,0.00,BKN,,0.01,WeatherDisplay:10.37,2013-01-30 14:30:00,
2013-01-30 06:35:00,32.8,31.8,30.22,NW,325,3.5,3.5,96,0.00,BKN,,0.01,WeatherDisplay:10.37,2013-01-30 14:35:00,
2013-01-30 06:40:00,32.9,31.9,30.22,WNW,287,6.0,6.0,96,0.00,BKN,,0.01,WeatherDisplay:10.37,2013-01-30 14:40:00,
2013-01-30 06:45:00,33.2,32.4,30.22,WNW,286,11.5,11.5,97,0.00,BKN,,0.01,WeatherDisplay:10.37,2013-01-30 14:45:00,
2013-01-30 06:50:00,33.4,32.4,30.21,WNW,286,11.5,11.5,96,0.00,BKN,,0.01,WeatherDisplay:10.37,2013-01-30 14:50:00,
2013-01-30 06:55:00,33.7,32.9,30.20,WNW,284,11.5,11.5,97,0.00,BKN,,0.01,WeatherDisplay:10.37,2013-01-30 14:55:00,
2013-01-30 07:00:00,34.1,33.1,30.20,WNW,296,6.9,6.9,96,0.00,BKN,,0.01,WeatherDisplay:10.37,2013-01-30 15:00:00,
2013-01-30 07:05:00,34.0,33.0,30.21,WNW,299,5.8,5.8,96,0.00,BKN,,0.01,WeatherDisplay:10.37,2013-01-30 15:05:00,
2013-01-30 07:10:00,33.9,32.9,30.21,WNW,284,5.8,5.8,96,0.00,BKN,,0.01,WeatherDisplay:10.37,2013-01-30 15:10:00,
2013-01-30 07:15:00,34.1,33.1,30.21,WNW,292,4.6,4.6,96,0.00,BKN,,0.01,WeatherDisplay:10.37,2013-01-30 15:15:00,
2013-01-30 07:20:00,34.1,33.1,30.21,WNW,293,5.0,5.0,96,0.00,BKN,,0.01,WeatherDisplay:10.37,2013-01-30 15:20:00,
2013-01-30 07:25:00,34.2,33.2,30.22,WNW,296,4.6,4.6,96,0.00,BKN,,0.01,WeatherDisplay:10.37,2013-01-30 15:25:00,
2013-01-30 07:30:00,34.4,33.4,30.22,WNW,303,4.6,4.6,96,0.00,BKN,,0.01,WeatherDisplay:10.37,2013-01-30 15:30:00,
2013-01-30 07:35:00,34.4,33.4,30.21,WNW,303,4.6,4.6,96,0.00,BKN,,0.01,WeatherDisplay:10.37,2013-01-30 15:35:00,
2013-01-30 07:40:00,34.4,33.4,30.21,WNW,301,4.6,4.6,96,0.00,BKN,,0.01,WeatherDisplay:10.37,2013-01-30 15:40:00,
2013-01-30 07:45:00,34.4,33.4,30.21,WNW,292,5.0,5.0,96,0.00,BKN,,0.01,WeatherDisplay:10.37,2013-01-30 15:45:00,
2013-01-30 07:50:00,34.4,33.4,30.21,WNW,292,4.6,4.6,96,0.00,BKN,,0.01,WeatherDisplay:10.37,2013-01-30 15:50:00,
2013-01-30 07:55:00,34.5,33.2,30.21,WNW,299,6.0,6.0,95,0.00,BKN,,0.01,WeatherDisplay:10.37,2013-01-30 15:55:00,
2013-01-30 08:00:00,34.5,33.2,30.21,WNW,292,6.9,6.9,95,0.00,BKN,,0.01,WeatherDisplay:10.37,2013-01-30 16:00:00,
2013-01-30 08:05:00,34.8,33.5,30.21,WNW,283,10.4,10.4,95,0.00,BKN,,0.01,WeatherDisplay:10.37,2013-01-30 16:05:00,
2013-01-30 08:10:00,35.0,33.4,30.21,WNW,283,10.4,10.4,94,0.00,BKN,,0.01,WeatherDisplay:10.37,2013-01-30 16:10:00,
2013-01-30 08:15:00,35.1,33.5,30.22,WNW,294,6.0,6.0,94,0.00,BKN,,0.01,WeatherDisplay:10.37,2013-01-30 16:15:00,
2013-01-30 08:20:00,35.1,33.5,30.22,WNW,293,10.4,10.4,94,0.00,BKN,,0.01,WeatherDisplay:10.37,2013-01-30 16:20:00,
2013-01-30 08:25:00,35.3,33.5,30.22,NW,306,3.5,3.5,93,0.00,BKN,,0.01,WeatherDisplay:10.37,2013-01-30 16:25:00,
2013-01-30 08:30:00,35.4,33.6,30.23,WNW,285,4.0,4.0,93,0.00,BKN,,0.01,WeatherDisplay:10.37,2013-01-30 16:30:00,
2013-01-30 08:35:00,35.5,33.7,30.23,WNW,287,3.5,3.5,93,0.00,BKN,,0.01,WeatherDisplay:10.37,2013-01-30 16:35:00,
2013-01-30 08:40:00,35.6,33.8,30.22,WNW,287,3.5,3.5,93,0.00,BKN,,0.01,WeatherDisplay:10.37,2013-01-30 16:40:00,
2013-01-30 08:45:00,35.6,33.5,30.22,NW,304,4.6,4.6,92,0.00,BKN,,0.01,WeatherDisplay:10.37,2013-01-30 16:45:00,
2013-01-30 08:50:00,35.8,33.7,30.23,NW,304,3.5,3.5,92,0.00,BKN,,0.01,WeatherDisplay:10.37,2013-01-30 16:50:00,
2013-01-30 08:55:00,36.0,33.9,30.23,NW,305,2.3,2.3,92,0.00,BKN,,0.01,WeatherDisplay:10.37,2013-01-30 16:55:00,
2013-01-30 09:00:00,36.1,33.7,30.23,NW,305,3.5,3.5,91,0.00,BKN,,0.01,WeatherDisplay:10.37,2013-01-30 17:00:00,
2013-01-30 09:05:00,36.2,33.8,30.23,WNW,298,4.6,4.6,91,0.01,RA,,0.02,WeatherDisplay:10.37,2013-01-30 17:05:00,
2013-01-30 09:10:00,36.3,33.9,30.23,WNW,298,3.5,3.5,91,0.01,RA,,0.02,WeatherDisplay:10.37,2013-01-30 17:10:00,
2013-01-30 09:15:00,36.4,33.7,30.23,WNW,283,6.9,6.9,90,0.01,BKN,,0.02,WeatherDisplay:10.37,2013-01-30 17:15:00,
2013-01-30 09:20:00,36.3,33.4,30.23,WNW,289,9.0,9.0,89,0.01,BKN,,0.02,WeatherDisplay:10.37,2013-01-30 17:20:00,
2013-01-30 09:25:00,36.4,33.5,30.23,WNW,284,9.2,9.2,89,0.02,RA,,0.03,WeatherDisplay:10.37,2013-01-30 17:25:00,
2013-01-30 09:30:00,36.7,33.5,30.22,WNW,284,11.0,11.0,88,0.02,RA,,0.03,WeatherDisplay:10.37,2013-01-30 17:30:00,
2013-01-30 09:35:00,36.9,33.4,30.23,WNW,296,9.2,9.2,87,0.02,BKN,,0.03,WeatherDisplay:10.37,2013-01-30 17:35:00,
2013-01-30 09:40:00,37.1,33.6,30.23,WNW,288,4.6,4.6,87,0.03,RA,,0.04,WeatherDisplay:10.37,2013-01-30 17:40:00,
2013-01-30 09:45:00,37.2,33.7,30.23,West,281,4.0,4.0,87,0.03,RA,,0.04,WeatherDisplay:10.37,2013-01-30 17:45:00,
2013-01-30 09:50:00,37.5,34.0,30.23,NNW,335,3.5,3.5,87,0.03,BKN,,0.04,WeatherDisplay:10.37,2013-01-30 17:50:00,
2013-01-30 09:55:00,37.9,34.1,30.23,NW,323,3.5,3.5,86,0.04,RA,,0.05,WeatherDisplay:10.37,2013-01-30 17:55:00,
2013-01-30 10:00:00,38.3,34.5,30.22,NW,307,4.6,4.6,86,0.04,RA,,0.05,WeatherDisplay:10.37,2013-01-30 18:00:00,
2013-01-30 10:05:00,38.6,34.5,30.23,WNW,298,3.5,3.5,85,0.03,BKN,,0.05,WeatherDisplay:10.37,2013-01-30 18:05:00,
2013-01-30 10:10:00,38.9,34.5,30.23,NW,307,3.5,3.5,84,0.04,RA,,0.06,WeatherDisplay:10.37,2013-01-30 18:10:00,
2013-01-30 10:15:00,39.1,34.7,30.23,NNW,342,6.9,6.9,84,0.04,RA,,0.06,WeatherDisplay:10.37,2013-01-30 18:15:00,
2013-01-30 10:20:00,39.1,34.4,30.23,WNW,300,3.5,3.5,83,0.04,BKN,,0.06,WeatherDisplay:10.37,2013-01-30 18:20:00,
2013-01-30 10:25:00,39.1,34.7,30.23,NW,304,3.5,3.5,84,0.04,RA,,0.07,WeatherDisplay:10.37,2013-01-30 18:25:00,
2013-01-30 10:30:00,39.0,34.3,30.23,WNW,302,4.0,4.0,83,0.04,RA,,0.07,WeatherDisplay:10.37,2013-01-30 18:30:00,
2013-01-30 10:35:00,39.1,34.4,30.23,WNW,294,4.6,4.6,83,0.04,BKN,,0.07,WeatherDisplay:10.37,2013-01-30 18:35:00,
2013-01-30 10:40:00,39.1,34.1,30.23,WNW,294,5.8,5.8,82,0.04,RA,,0.08,WeatherDisplay:10.37,2013-01-30 18:40:00,
2013-01-30 10:45:00,39.1,34.4,30.24,WNW,294,4.6,4.6,83,0.04,RA,,0.08,WeatherDisplay:10.37,2013-01-30 18:45:00,
2013-01-30 10:50:00,38.9,34.2,30.24,WNW,291,5.8,5.8,83,0.04,BKN,,0.09,WeatherDisplay:10.37,2013-01-30 18:50:00,
2013-01-30 10:55:00,39.0,34.3,30.24,WNW,286,6.9,6.9,83,0.04,RA,,0.09,WeatherDisplay:10.37,2013-01-30 18:55:00,
2013-01-30 11:00:00,38.8,34.1,30.23,WNW,286,3.5,3.5,83,0.04,RA,,0.09,WeatherDisplay:10.37,2013-01-30 19:00:00,
2013-01-30 11:06:00,38.7,34.3,30.23,WNW,286,4.6,4.6,84,0.05,RA,,0.10,WeatherDisplay:10.37,2013-01-30 19:06:00,
2013-01-30 11:11:00,38.7,34.3,30.23,WNW,292,6.9,6.9,84,0.04,RA,,0.10,WeatherDisplay:10.37,2013-01-30 19:11:00,
2013-01-30 11:16:00,38.7,34.3,30.23,WNW,298,3.5,3.5,84,0.04,OVC,,0.10,WeatherDisplay:10.37,2013-01-30 19:16:00,
2013-01-30 11:21:00,38.7,34.0,30.23,WNW,298,10.4,10.4,83,0.05,RA,,0.11,WeatherDisplay:10.37,2013-01-30 19:21:00,
2013-01-30 11:26:00,38.7,34.0,30.23,WNW,284,11.5,11.5,83,0.04,RA,,0.11,WeatherDisplay:10.37,2013-01-30 19:26:00,
2013-01-30 11:31:00,38.3,33.6,30.23,WNW,292,8.1,8.1,83,0.05,RA,,0.12,WeatherDisplay:10.37,2013-01-30 19:31:00,
2013-01-30 11:36:00,38.1,33.7,30.23,West,281,11.5,11.5,84,0.05,RA,,0.12,WeatherDisplay:10.37,2013-01-30 19:36:00,
2013-01-30 11:41:00,38.4,34.0,30.23,West,276,12.7,12.7,84,0.04,OVC,,0.12,WeatherDisplay:10.37,2013-01-30 19:41:00,
2013-01-30 11:46:00,38.6,33.9,30.23,WNW,285,13.8,13.8,83,0.04,OVC,,0.12,WeatherDisplay:10.37,2013-01-30 19:46:00,
2013-01-30 11:51:00,38.7,34.0,30.23,West,281,11.5,11.5,83,0.04,RA,,0.13,WeatherDisplay:10.37,2013-01-30 19:51:00,
2013-01-30 11:56:00,38.7,34.0,30.23,WNW,286,15.0,15.0,83,0.04,RA,,0.13,WeatherDisplay:10.37,2013-01-30 19:56:00,
2013-01-30 12:01:00,38.8,34.1,30.23,WNW,291,11.5,11.5,83,0.04,BKN,,0.13,WeatherDisplay:10.37,2013-01-30 20:01:00,
2013-01-30 12:06:00,38.8,34.1,30.23,West,274,11.5,11.5,83,0.04,RA,,0.14,WeatherDisplay:10.37,2013-01-30 20:06:00,
2013-01-30 12:11:00,39.3,34.6,30.23,West,275,13.0,13.0,83,0.04,RA,,0.14,WeatherDisplay:10.37,2013-01-30 20:11:00,
2013-01-30 12:16:00,39.9,34.9,30.22,WNW,292,10.4,10.4,82,0.04,BKN,,0.14,WeatherDisplay:10.37,2013-01-30 20:16:00,
2013-01-30 12:21:00,40.4,35.3,30.22,West,281,7.0,7.0,82,0.04,RA,,0.15,WeatherDisplay:10.37,2013-01-30 20:21:00,
2013-01-30 12:26:00,40.8,35.4,30.23,WNW,291,9.2,9.2,81,0.04,RA,,0.15,WeatherDisplay:10.37,2013-01-30 20:26:00,
2013-01-30 12:31:00,41.4,36.3,30.22,WNW,292,12.0,12.0,82,0.03,BKN,,0.15,WeatherDisplay:10.37,2013-01-30 20:31:00,
2013-01-30 12:36:00,41.8,36.1,30.21,WNW,286,10.4,10.4,80,0.03,BKN,,0.15,WeatherDisplay:10.37,2013-01-30 20:36:00,
2013-01-30 12:41:00,41.9,36.2,30.22,NW,308,5.0,5.0,80,0.04,RA,,0.16,WeatherDisplay:10.37,2013-01-30 20:41:00,
2013-01-30 12:46:00,42.0,36.3,30.21,WNW,295,10.4,10.4,80,0.04,RA,,0.16,WeatherDisplay:10.37,2013-01-30 20:46:00,
2013-01-30 12:51:00,41.6,35.9,30.21,NW,317,8.1,8.1,80,0.03,BKN,,0.16,WeatherDisplay:10.37,2013-01-30 20:51:00,
2013-01-30 12:56:00,41.0,35.6,30.22,West,281,10.4,10.4,81,0.03,BKN,,0.16,WeatherDisplay:10.37,2013-01-30 20:56:00,
2013-01-30 13:01:00,40.5,35.4,30.22,WNW,296,9.2,9.2,82,0.03,FEW,,0.16,WeatherDisplay:10.37,2013-01-30 21:01:00,
2013-01-30 13:06:00,40.6,35.8,30.22,WNW,293,4.6,4.6,83,0.02,FEW,,0.16,WeatherDisplay:10.37,2013-01-30 21:06:00,
2013-01-30 13:11:00,41.0,37.7,30.22,WNW,294,12.7,12.7,88,0.02,FEW,,0.16,WeatherDisplay:10.37,2013-01-30 21:11:00,
2013-01-30 13:16:00,42.2,37.4,30.21,WNW,302,4.6,4.6,83,0.02,FEW,,0.16,WeatherDisplay:10.37,2013-01-30 21:16:00,
2013-01-30 13:21:00,43.3,37.2,30.20,NW,304,5.8,5.8,79,0.01,FEW,,0.16,WeatherDisplay:10.37,2013-01-30 21:21:00,
2013-01-30 13:26:00,43.7,37.0,30.19,WNW,294,7.0,7.0,77,0.01,FEW,,0.16,WeatherDisplay:10.37,2013-01-30 21:26:00,
2013-01-30 13:31:00,43.7,37.3,30.20,WNW,294,12.7,12.7,78,0.01,FEW,,0.16,WeatherDisplay:10.37,2013-01-30 21:31:00,
2013-01-30 13:36:00,44.2,37.8,30.20,WNW,297,6.9,6.9,78,0.01,FEW,,0.16,WeatherDisplay:10.37,2013-01-30 21:36:00,
2013-01-30 13:41:00,44.5,37.4,30.20,NW,324,3.5,3.5,76,0.00,FEW,,0.16,WeatherDisplay:10.37,2013-01-30 21:41:00,
2013-01-30 13:46:00,44.4,37.6,30.20,NNE,27,6.0,6.0,77,0.00,FEW,,0.16,WeatherDisplay:10.37,2013-01-30 21:46:00,
2013-01-30 13:51:00,44.6,37.8,30.20,West,280,4.6,4.6,77,0.00,FEW,,0.16,WeatherDisplay:10.37,2013-01-30 21:51:00,
2013-01-30 13:56:00,43.9,36.8,30.20,NW,306,5.0,5.0,76,0.00,FEW,,0.16,WeatherDisplay:10.37,2013-01-30 21:56:00,
2013-01-30 14:01:00,43.3,36.9,30.20,WNW,298,6.9,6.9,78,0.00,BKN,,0.16,WeatherDisplay:10.37,2013-01-30 22:01:00,
2013-01-30 14:06:00,43.1,37.0,30.20,WNW,298,3.0,3.0,79,0.00,BKN,,0.16,WeatherDisplay:10.37,2013-01-30 22:06:00,
2013-01-30 14:11:00,43.0,36.9,30.21,NW,304,3.5,3.5,79,0.00,BKN,,0.16,WeatherDisplay:10.37,2013-01-30 22:11:00,
2013-01-30 14:16:00,43.2,37.4,30.21,NW,317,4.0,4.0,80,0.00,BKN,,0.16,WeatherDisplay:10.37,2013-01-30 22:16:00,
2013-01-30 14:21:00,43.3,37.5,30.21,NW,309,5.8,5.8,80,0.00,BKN,,0.16,WeatherDisplay:10.37,2013-01-30 22:21:00,
2013-01-30 14:26:00,43.2,37.1,30.21,NW,307,5.8,5.8,79,0.00,BKN,,0.16,WeatherDisplay:10.37,2013-01-30 22:26:00,
2013-01-30 14:31:00,43.0,36.9,30.21,NW,307,3.5,3.5,79,0.00,BKN,,0.16,WeatherDisplay:10.37,2013-01-30 22:31:00,
2013-01-30 14:36:00,42.4,36.3,30.22,NW,310,4.6,4.6,79,0.00,BKN,,0.16,WeatherDisplay:10.37,2013-01-30 22:36:00,
2013-01-30 14:41:00,41.6,35.6,30.22,WNW,303,6.9,6.9,79,0.00,BKN,,0.16,WeatherDisplay:10.37,2013-01-30 22:41:00,
2013-01-30 14:46:00,40.9,35.5,30.23,NW,304,4.6,4.6,81,0.00,BKN,,0.16,WeatherDisplay:10.37,2013-01-30 22:46:00,
2013-01-30 14:51:00,40.4,35.0,30.23,WNW,301,3.5,3.5,81,0.00,BKN,,0.16,WeatherDisplay:10.37,2013-01-30 22:51:00,
2013-01-30 14:56:00,40.1,35.0,30.23,NW,307,5.0,5.0,82,0.00,BKN,,0.16,WeatherDisplay:10.37,2013-01-30 22:56:00,
2013-01-30 15:01:00,39.8,34.8,30.24,NW,312,4.0,4.0,82,0.00,FEW,,0.16,WeatherDisplay:10.37,2013-01-30 23:01:00,
2013-01-30 15:06:00,39.6,34.6,30.23,NW,306,4.6,4.6,82,0.00,FEW,,0.16,WeatherDisplay:10.37,2013-01-30 23:06:00,
2013-01-30 15:11:00,39.5,34.5,30.23,NW,306,4.6,4.6,82,0.00,FEW,,0.16,WeatherDisplay:10.37,2013-01-30 23:11:00,
2013-01-30 15:16:00,39.4,34.4,30.23,NW,325,6.9,6.9,82,0.00,FEW,,0.16,WeatherDisplay:10.37,2013-01-30 23:16:00,
2013-01-30 15:21:00,39.3,34.3,30.24,WNW,300,4.0,4.0,82,0.00,FEW,,0.16,WeatherDisplay:10.37,2013-01-30 23:21:00,
2013-01-30 15:26:00,39.1,34.1,30.24,WNW,296,6.0,6.0,82,0.00,FEW,,0.16,WeatherDisplay:10.37,2013-01-30 23:26:00,
2013-01-30 15:31:00,39.0,34.3,30.24,WNW,302,5.8,5.8,83,0.00,FEW,,0.16,WeatherDisplay:10.37,2013-01-30 23:31:00,
2013-01-30 15:36:00,38.9,34.2,30.24,WNW,302,5.8,5.8,83,0.00,FEW,,0.16,WeatherDisplay:10.37,2013-01-30 23:36:00,
2013-01-30 15:41:00,38.9,34.5,30.24,WNW,292,4.0,4.0,84,0.00,FEW,,0.16,WeatherDisplay:10.37,2013-01-30 23:41:00,
2013-01-30 15:46:00,38.9,34.2,30.24,WNW,302,9.2,9.2,83,0.00,FEW,,0.16,WeatherDisplay:10.37,2013-01-30 23:46:00,
2013-01-30 15:51:00,38.9,34.2,30.24,NW,304,6.9,6.9,83,0.00,FEW,,0.16,WeatherDisplay:10.37,2013-01-30 23:51:00,
2013-01-30 15:56:00,39.0,34.0,30.24,NW,319,4.6,4.6,82,0.00,FEW,,0.16,WeatherDisplay:10.37,2013-01-30 23:56:00,
2013-01-30 16:01:00,39.1,34.1,30.25,WNW,303,6.9,6.9,82,0.00,SCT,,0.16,WeatherDisplay:10.37,2013-01-31 00:01:00,
2013-01-30 16:06:00,39.1,34.1,30.25,WNW,297,4.6,4.6,82,0.00,SCT,,0.16,WeatherDisplay:10.37,2013-01-31 00:06:00,
2013-01-30 16:11:00,39.0,34.0,30.25,WNW,296,3.5,3.5,82,0.00,SCT,,0.16,WeatherDisplay:10.37,2013-01-31 00:11:00,
2013-01-30 16:16:00,38.9,34.2,30.25,NW,319,3.5,3.5,83,0.00,SCT,,0.16,WeatherDisplay:10.37,2013-01-31 00:16:00,
2013-01-30 16:21:00,38.7,34.0,30.25,NW,324,5.8,5.8,83,0.00,SCT,,0.16,WeatherDisplay:10.37,2013-01-31 00:21:00,
2013-01-30 16:27:00,38.6,34.2,30.25,NW,324,4.6,4.6,84,0.00,SCT,,0.16,WeatherDisplay:10.37,2013-01-31 00:27:00,
2013-01-30 16:31:00,38.6,34.2,30.26,NW,306,3.5,3.5,84,0.00,SCT,,0.16,WeatherDisplay:10.37,2013-01-31 00:31:00,
2013-01-30 16:37:00,38.7,34.3,30.26,NW,317,3.5,3.5,84,0.00,SCT,,0.16,WeatherDisplay:10.37,2013-01-31 00:37:00,
2013-01-30 16:42:00,38.6,34.2,30.26,NW,317,3.5,3.5,84,0.00,SCT,,0.16,WeatherDisplay:10.37,2013-01-31 00:42:00,
2013-01-30 16:47:00,38.4,34.0,30.26,NW,306,4.6,4.6,84,0.00,SCT,,0.16,WeatherDisplay:10.37,2013-01-31 00:47:00,
2013-01-30 16:52:00,38.2,33.8,30.26,NNW,327,4.6,4.6,84,0.00,SCT,,0.16,WeatherDisplay:10.37,2013-01-31 00:52:00,
2013-01-30 16:57:00,38.1,33.7,30.26,West,280,5.8,5.8,84,0.00,SCT,,0.16,WeatherDisplay:10.37,2013-01-31 00:57:00,
2013-01-30 17:02:00,38.1,33.7,30.26,NW,314,7.0,7.0,84,0.00,SCT,,0.16,WeatherDisplay:10.37,2013-01-31 01:02:00,
2013-01-30 17:07:00,38.1,33.7,30.26,WNW,300,4.6,4.6,84,0.00,SCT,,0.16,WeatherDisplay:10.37,2013-01-31 01:07:00,
2013-01-30 17:12:00,38.1,33.7,30.26,WNW,292,4.6,4.6,84,0.00,SCT,,0.16,WeatherDisplay:10.37,2013-01-31 01:12:00,
2013-01-30 17:17:00,38.1,33.7,30.26,WNW,294,4.6,4.6,84,0.00,SCT,,0.16,WeatherDisplay:10.37,2013-01-31 01:17:00,
2013-01-30 17:22:00,37.9,33.8,30.27,NW,304,4.6,4.6,85,0.00,SCT,,0.16,WeatherDisplay:10.37,2013-01-31 01:22:00,
2013-01-30 17:27:00,37.8,33.7,30.27,NW,304,3.5,3.5,85,0.00,SCT,,0.16,WeatherDisplay:10.37,2013-01-31 01:27:00,
2013-01-30 17:32:00,37.8,33.7,30.27,WNW,284,9.2,9.2,85,0.00,SCT,,0.16,WeatherDisplay:10.37,2013-01-31 01:32:00,
2013-01-30 17:37:00,37.6,33.8,30.27,West,281,4.0,4.0,86,0.00,SCT,,0.16,WeatherDisplay:10.37,2013-01-31 01:37:00,
2013-01-30 17:42:00,37.5,33.7,30.27,West,281,2.3,2.3,86,0.00,SCT,,0.16,WeatherDisplay:10.37,2013-01-31 01:42:00,
2013-01-30 17:47:00,37.4,33.9,30.28,West,281,2.3,2.3,87,0.00,SCT,,0.16,WeatherDisplay:10.37,2013-01-31 01:47:00,
2013-01-30 17:52:00,37.4,33.9,30.28,West,281,1.1,1.1,87,0.00,SCT,,0.16,WeatherDisplay:10.37,2013-01-31 01:52:00,
2013-01-30 17:57:00,37.4,33.9,30.28,West,281,0.0,0.0,87,0.00,SCT,,0.16,WeatherDisplay:10.37,2013-01-31 01:57:00,
2013-01-30 18:02:00,37.3,33.8,30.28,West,281,0.0,0.0,87,0.00,OVC,,0.16,WeatherDisplay:10.37,2013-01-31 02:02:00,
2013-01-30 18:07:00,37.2,33.7,30.28,West,281,0.0,0.0,87,0.00,OVC,,0.16,WeatherDisplay:10.37,2013-01-31 02:07:00,
2013-01-30 18:12:00,37.1,33.6,30.28,West,281,0.0,0.0,87,0.00,OVC,,0.16,WeatherDisplay:10.37,2013-01-31 02:12:00,
2013-01-30 18:17:00,37.2,33.7,30.28,West,281,2.3,2.3,87,0.00,OVC,,0.16,WeatherDisplay:10.37,2013-01-31 02:17:00,
2013-01-30 18:22:00,37.3,33.8,30.28,West,281,0.0,0.0,87,0.00,OVC,,0.16,WeatherDisplay:10.37,2013-01-31 02:22:00,
2013-01-30 18:27:00,37.2,33.7,30.28,West,281,0.0,0.0,87,0.00,OVC,,0.16,WeatherDisplay:10.37,2013-01-31 02:27:00,
2013-01-30 18:32:00,37.1,33.6,30.28,West,281,0.0,0.0,87,0.00,OVC,,0.16,WeatherDisplay:10.37,2013-01-31 02:32:00,
2013-01-30 18:37:00,37.1,33.6,30.28,West,281,0.0,0.0,87,0.00,OVC,,0.16,WeatherDisplay:10.37,2013-01-31 02:37:00,
2013-01-30 18:42:00,37.1,33.3,30.29,West,281,0.0,0.0,86,0.00,OVC,,0.16,WeatherDisplay:10.37,2013-01-31 02:42:00,
2013-01-30 18:47:00,37.1,33.3,30.29,West,281,2.3,0.0,86,0.00,OVC,,0.16,WeatherDisplay:10.37,2013-01-31 02:47:00,
2013-01-30 18:52:00,37.1,33.3,30.29,West,281,0.0,0.0,86,0.00,OVC,,0.16,WeatherDisplay:10.37,2013-01-31 02:52:00,
2013-01-30 18:57:00,36.9,33.1,30.29,West,281,3.5,3.5,86,0.00,OVC,,0.16,WeatherDisplay:10.37,2013-01-31 02:57:00,
2013-01-30 19:02:00,37.0,33.2,30.27,West,281,3.5,3.5,86,0.00,SCT,,0.16,WeatherDisplay:10.37,2013-01-31 03:02:00,
2013-01-30 19:07:00,36.7,32.9,30.27,West,281,2.3,2.3,86,0.00,SCT,,0.16,WeatherDisplay:10.37,2013-01-31 03:07:00,
2013-01-30 19:12:00,36.4,32.6,30.28,West,281,2.3,2.3,86,0.00,SCT,,0.16,WeatherDisplay:10.37,2013-01-31 03:12:00,
2013-01-30 19:17:00,36.3,32.5,30.28,West,281,0.0,0.0,86,0.00,SCT,,0.16,WeatherDisplay:10.37,2013-01-31 03:17:00,
2013-01-30 19:22:00,36.1,32.6,30.29,West,281,3.5,3.5,87,0.00,SCT,,0.16,WeatherDisplay:10.37,2013-01-31 03:22:00,
2013-01-30 19:27:00,36.4,32.6,30.29,West,273,7.0,7.0,86,0.00,SCT,,0.16,WeatherDisplay:10.37,2013-01-31 03:27:00,
2013-01-30 19:32:00,37.3,32.9,30.28,West,279,9.2,9.2,84,0.00,SCT,,0.16,WeatherDisplay:10.37,2013-01-31 03:32:00,
2013-01-30 19:37:00,37.8,32.8,30.28,West,276,9.2,9.2,82,0.00,SCT,,0.16,WeatherDisplay:10.37,2013-01-31 03:37:00,
2013-01-30 19:42:00,38.2,33.2,30.28,West,275,11.5,11.5,82,0.00,SCT,,0.16,WeatherDisplay:10.37,2013-01-31 03:42:00,
2013-01-30 19:47:00,38.5,33.2,30.27,West,271,10.4,10.4,81,0.00,SCT,,0.16,WeatherDisplay:10.37,2013-01-31 03:47:00,
2013-01-30 19:52:00,38.5,33.2,30.27,West,269,11.5,11.5,81,0.00,SCT,,0.16,WeatherDisplay:10.37,2013-01-31 03:52:00,
2013-01-30 19:57:00,38.4,33.1,30.28,West,275,10.4,10.4,81,0.00,SCT,,0.16,WeatherDisplay:10.37,2013-01-31 03:57:00,
2013-01-30 20:02:00,38.7,33.1,30.28,West,267,11.5,11.5,80,0.00,SCT,,0.16,WeatherDisplay:10.37,2013-01-31 04:02:00,
2013-01-30 20:07:00,38.8,33.2,30.28,West,271,11.5,11.5,80,0.00,SCT,,0.16,WeatherDisplay:10.37,2013-01-31 04:07:00,
2013-01-30 20:12:00,38.7,33.1,30.28,WNW,288,11.5,11.5,80,0.00,SCT,,0.16,WeatherDisplay:10.37,2013-01-31 04:12:00,
2013-01-30 20:17:00,38.6,33.0,30.28,West,281,10.4,10.4,80,0.00,SCT,,0.16,WeatherDisplay:10.37,2013-01-31 04:17:00,
2013-01-30 20:22:00,38.6,33.0,30.28,West,274,10.4,10.4,80,0.00,SCT,,0.16,WeatherDisplay:10.37,2013-01-31 04:22:00,
2013-01-30 20:27:00,38.6,33.0,30.28,West,275,12.7,12.7,80,0.00,SCT,,0.16,WeatherDisplay:10.37,2013-01-31 04:27:00,
2013-01-30 20:32:00,38.4,33.1,30.28,West,278,11.5,11.5,81,0.00,SCT,,0.16,WeatherDisplay:10.37,2013-01-31 04:32:00,
2013-01-30 20:37:00,38.4,33.1,30.28,West,275,10.4,10.4,81,0.00,SCT,,0.16,WeatherDisplay:10.37,2013-01-31 04:37:00,
2013-01-30 20:42:00,38.5,33.2,30.28,West,274,10.0,10.0,81,0.00,SCT,,0.16,WeatherDisplay:10.37,2013-01-31 04:42:00,
2013-01-30 20:47:00,38.5,33.2,30.28,West,275,10.4,10.4,81,0.00,SCT,,0.16,WeatherDisplay:10.37,2013-01-31 04:47:00,
2013-01-30 20:52:00,38.4,33.1,30.28,West,275,9.2,9.2,81,0.00,SCT,,0.16,WeatherDisplay:10.37,2013-01-31 04:52:00,
2013-01-30 20:57:00,38.4,33.1,30.28,West,277,8.1,8.1,81,0.00,SCT,,0.16,WeatherDisplay:10.37,2013-01-31 04:57:00,
2013-01-30 21:00:00,38.4,33.1,30.27,West,275,9.2,9.2,81,0.00,SCT,,0.16,WeatherDisplay:10.37,2013-01-31 05:00:00,
2013-01-30 21:01:00,38.5,33.2,30.27,West,275,9.2,9.2,81,0.00,OVC,,0.16,WeatherDisplay:10.37,2013-01-31 05:01:00,
2013-01-30 21:03:00,38.5,33.2,30.27,West,275,5.8,5.8,81,0.00,OVC,,0.16,WeatherDisplay:10.37,2013-01-31 05:03:00,
2013-01-30 21:08:00,38.5,33.2,30.27,West,280,8.1,8.1,81,0.00,OVC,,0.16,WeatherDisplay:10.37,2013-01-31 05:08:00,
2013-01-30 21:13:00,38.5,33.2,30.28,West,280,6.0,6.0,81,0.00,OVC,,0.16,WeatherDisplay:10.37,2013-01-31 05:13:00,
2013-01-30 21:18:00,38.4,33.1,30.27,West,276,10.4,10.4,81,0.00,OVC,,0.16,WeatherDisplay:10.37,2013-01-31 05:18:00,
2013-01-30 21:23:00,38.5,33.2,30.27,West,277,11.5,11.5,81,0.00,OVC,,0.16,WeatherDisplay:10.37,2013-01-31 05:23:00,
2013-01-30 21:28:00,38.4,33.1,30.28,West,273,10.4,10.4,81,0.00,OVC,,0.16,WeatherDisplay:10.37,2013-01-31 05:28:00,
2013-01-30 21:33:00,38.6,33.0,30.28,West,273,10.4,10.4,80,0.00,OVC,,0.16,WeatherDisplay:10.37,2013-01-31 05:33:00,
2013-01-30 21:38:00,38.6,33.0,30.28,West,277,10.4,10.4,80,0.00,OVC,,0.16,WeatherDisplay:10.37,2013-01-31 05:38:00,
2013-01-30 21:43:00,38.7,33.1,30.27,West,272,10.4,10.4,80,0.00,OVC,,0.16,WeatherDisplay:10.37,2013-01-31 05:43:00,
2013-01-30 21:48:00,38.8,33.2,30.27,West,273,11.5,11.5,80,0.00,OVC,,0.16,WeatherDisplay:10.37,2013-01-31 05:48:00,
2013-01-30 21:53:00,38.9,33.3,30.27,West,274,13.8,13.8,80,0.00,OVC,,0.16,WeatherDisplay:10.37,2013-01-31 05:53:00,
2013-01-30 21:58:00,39.0,33.0,30.27,West,273,13.8,13.8,79,0.00,OVC,,0.16,WeatherDisplay:10.37,2013-01-31 05:58:00,
2013-01-30 22:03:00,39.0,33.0,30.26,West,277,10.4,10.4,79,0.00,OVC,,0.16,WeatherDisplay:10.37,2013-01-31 06:03:00,
2013-01-30 22:08:00,38.7,33.1,30.27,West,272,12.7,12.7,80,0.00,OVC,,0.16,WeatherDisplay:10.37,2013-01-31 06:08:00,
2013-01-30 22:13:00,38.8,33.2,30.27,West,271,12.7,12.7,80,0.00,OVC,,0.16,WeatherDisplay:10.37,2013-01-31 06:13:00,
2013-01-30 22:18:00,38.6,33.0,30.27,West,272,11.5,11.5,80,0.00,OVC,,0.16,WeatherDisplay:10.37,2013-01-31 06:18:00,
2013-01-30 22:23:00,38.6,33.0,30.27,West,271,11.5,11.5,80,0.00,OVC,,0.16,WeatherDisplay:10.37,2013-01-31 06:23:00,
2013-01-30 22:28:00,38.6,33.0,30.27,West,275,10.4,10.4,80,0.00,OVC,,0.16,WeatherDisplay:10.37,2013-01-31 06:28:00,
2013-01-30 22:33:00,38.7,33.1,30.27,West,275,11.5,11.5,80,0.00,OVC,,0.16,WeatherDisplay:10.37,2013-01-31 06:33:00,
2013-01-30 22:38:00,38.7,33.1,30.27,West,274,10.4,10.4,80,0.00,OVC,,0.16,WeatherDisplay:10.37,2013-01-31 06:38:00,
2013-01-30 22:43:00,38.6,33.0,30.27,West,277,11.5,11.5,80,0.00,OVC,,0.16,WeatherDisplay:10.37,2013-01-31 06:43:00,
2013-01-30 22:48:00,38.4,32.8,30.28,West,273,7.0,7.0,80,0.00,OVC,,0.16,WeatherDisplay:10.37,2013-01-31 06:48:00,
2013-01-30 22:53:00,38.3,33.0,30.28,West,273,5.8,5.8,81,0.00,OVC,,0.16,WeatherDisplay:10.37,2013-01-31 06:53:00,
2013-01-30 22:58:00,38.2,32.9,30.27,West,273,2.3,2.3,81,0.00,OVC,,0.16,WeatherDisplay:10.37,2013-01-31 06:58:00,
2013-01-30 23:03:00,37.5,32.5,30.28,West,273,3.5,3.5,82,0.00,OVC,,0.16,WeatherDisplay:10.37,2013-01-31 07:03:00,
2013-01-30 23:08:00,36.9,32.2,30.28,West,273,2.3,2.3,83,0.00,OVC,,0.16,WeatherDisplay:10.37,2013-01-31 07:08:00,
2013-01-30 23:13:00,36.5,32.1,30.28,West,273,3.5,3.5,84,0.00,OVC,,0.16,WeatherDisplay:10.37,2013-01-31 07:13:00,
2013-01-30 23:18:00,36.9,32.8,30.27,West,273,8.1,8.1,85,0.00,OVC,,0.16,WeatherDisplay:10.37,2013-01-31 07:18:00,
2013-01-30 23:23:00,37.5,33.1,30.28,West,273,9.2,9.2,84,0.00,OVC,,0.16,WeatherDisplay:10.37,2013-01-31 07:23:00,
2013-01-30 23:28:00,37.9,32.9,30.28,West,259,7.0,7.0,82,0.00,OVC,,0.16,WeatherDisplay:10.37,2013-01-31 07:28:00,
2013-01-30 23:33:00,37.9,32.9,30.28,West,259,4.6,4.6,82,0.00,OVC,,0.16,WeatherDisplay:10.37,2013-01-31 07:33:00,
2013-01-30 23:38:00,37.6,32.6,30.28,West,259,4.6,4.6,82,0.00,OVC,,0.16,WeatherDisplay:10.37,2013-01-31 07:38:00,
2013-01-30 23:43:00,37.7,33.0,30.28,West,259,5.0,5.0,83,0.00,OVC,,0.16,WeatherDisplay:10.37,2013-01-31 07:43:00,
2013-01-30 23:48:00,37.7,32.7,30.28,WSW,258,5.8,5.8,82,0.00,OVC,,0.16,WeatherDisplay:10.37,2013-01-31 07:48:00,
2013-01-30 23:53:00,37.1,32.4,30.28,SW,232,4.6,4.6,83,0.00,OVC,,0.16,WeatherDisplay:10.37,2013-01-31 07:53:00,
2013-01-30 23:58:00,36.5,32.4,30.28,SW,232,4.6,4.6,85,0.00,OVC,,0.16,WeatherDisplay:10.37,2013-01-31 07:58:00,